Terminal Aerodrome Forecast
Issued by NWS

Home | Current Version | Previous Version | Text Only | Print | Product List | Glossary On
Versions: 1 2 3 4 5 6 7 8 9 10 11 12 13 14 15 16 17 18 19 20 21 22 23 24 25 26 27 28
000
FTUS43 KDMX 251133
TAFMCW
TAF
KMCW 251133Z 2512/2612 13009KT 5SM TSRA SCT010 BKN020CB OVC050
     FM251400 16015G23KT P6SM BKN050 OVC150
     FM251600 18012KT P6SM BKN050
     FM260000 15005KT P6SM FEW050
     FM260400 VRB04KT 2SM BR FEW050
     FM260800 33006KT 3SM BR SCT250=

USA.gov is the U.S. government's official web portal to all federal, state and local government web resources and services.